sensor_id;sensor_type;location;lat;lon;timestamp;P1;durP1;ratioP1;P2;durP2;ratioP2
46363;SDS011;32071;49.036;9.344;2022-11-04T00:01:43;1.00;;;0.90;;
46363;SDS011;32071;49.036;9.344;2022-11-04T00:04:10;1.10;;;0.90;;
46363;SDS011;32071;49.036;9.344;2022-11-04T00:06:39;1.70;;;1.60;;
46363;SDS011;32071;49.036;9.344;2022-11-04T00:09:08;2.10;;;1.90;;
46363;SDS011;32071;49.036;9.344;2022-11-04T00:11:35;4.13;;;2.57;;
46363;SDS011;32071;49.036;9.344;2022-11-04T00:14:19;2.70;;;1.30;;
46363;SDS011;32071;49.036;9.344;2022-11-04T00:16:45;1.40;;;1.30;;
46363;SDS011;32071;49.036;9.344;2022-11-04T00:19:30;1.53;;;1.30;;
46363;SDS011;32071;49.036;9.344;2022-11-04T00:22:16;2.50;;;1.57;;
46363;SDS011;32071;49.036;9.344;2022-11-04T00:25:00;2.40;;;1.50;;
46363;SDS011;32071;49.036;9.344;2022-11-04T00:27:44;2.27;;;1.47;;
46363;SDS011;32071;49.036;9.344;2022-11-04T00:30:29;1.80;;;1.40;;
46363;SDS011;32071;49.036;9.344;2022-11-04T00:32:54;2.37;;;1.43;;
46363;SDS011;32071;49.036;9.344;2022-11-04T00:35:38;1.50;;;1.40;;
46363;SDS011;32071;49.036;9.344;2022-11-04T00:38:04;1.63;;;1.27;;
46363;SDS011;32071;49.036;9.344;2022-11-04T00:40:29;2.57;;;1.57;;
46363;SDS011;32071;49.036;9.344;2022-11-04T00:42:55;2.77;;;1.30;;
46363;SDS011;32071;49.036;9.344;2022-11-04T00:45:20;1.70;;;1.57;;
46363;SDS011;32071;49.036;9.344;2022-11-04T00:47:46;1.00;;;0.87;;
46363;SDS011;32071;49.036;9.344;2022-11-04T00:50:11;2.60;;;1.20;;
46363;SDS011;32071;49.036;9.344;2022-11-04T00:52:37;1.90;;;1.30;;
46363;SDS011;32071;49.036;9.344;2022-11-04T00:55:03;1.23;;;1.00;;
46363;SDS011;32071;49.036;9.344;2022-11-04T00:57:29;1.33;;;1.10;;
46363;SDS011;32071;49.036;9.344;2022-11-04T00:59:54;2.00;;;1.33;;
46363;SDS011;32071;49.036;9.344;2022-11-04T01:02:20;1.57;;;0.87;;
46363;SDS011;32071;49.036;9.344;2022-11-04T01:04:46;1.20;;;0.90;;
46363;SDS011;32071;49.036;9.344;2022-11-04T01:07:12;1.37;;;1.00;;
46363;SDS011;32071;49.036;9.344;2022-11-04T01:09:37;1.20;;;1.10;;
46363;SDS011;32071;49.036;9.344;2022-11-04T01:12:03;1.03;;;0.80;;
46363;SDS011;32071;49.036;9.344;2022-11-04T01:14:29;1.77;;;1.27;;
46363;SDS011;32071;49.036;9.344;2022-11-04T01:16:54;2.80;;;1.27;;
46363;SDS011;32071;49.036;9.344;2022-11-04T01:19:20;1.77;;;1.00;;
46363;SDS011;32071;49.036;9.344;2022-11-04T01:21:48;1.50;;;1.00;;
46363;SDS011;32071;49.036;9.344;2022-11-04T01:24:14;1.53;;;1.33;;
46363;SDS011;32071;49.036;9.344;2022-11-04T01:26:40;1.10;;;1.00;;
46363;SDS011;32071;49.036;9.344;2022-11-04T01:29:06;1.23;;;1.13;;
46363;SDS011;32071;49.036;9.344;2022-11-04T01:31:31;1.63;;;1.10;;
46363;SDS011;32071;49.036;9.344;2022-11-04T01:33:57;1.60;;;1.20;;
46363;SDS011;32071;49.036;9.344;2022-11-04T01:36:23;1.03;;;0.90;;
46363;SDS011;32071;49.036;9.344;2022-11-04T01:38:50;1.23;;;1.00;;
46363;SDS011;32071;49.036;9.344;2022-11-04T01:43:50;1.40;;;0.90;;
46363;SDS011;32071;49.036;9.344;2022-11-04T01:46:20;3.50;;;1.30;;
46363;SDS011;32071;49.036;9.344;2022-11-04T01:48:56;1.10;;;1.00;;
46363;SDS011;32071;49.036;9.344;2022-11-04T01:51:27;3.37;;;1.13;;
46363;SDS011;32071;49.036;9.344;2022-11-04T01:53:56;1.00;;;0.90;;
46363;SDS011;32071;49.036;9.344;2022-11-04T01:56:22;2.80;;;1.30;;
46363;SDS011;32071;49.036;9.344;2022-11-04T01:58:50;1.30;;;1.10;;
46363;SDS011;32071;49.036;9.344;2022-11-04T02:01:19;1.27;;;1.10;;
46363;SDS011;32071;49.036;9.344;2022-11-04T02:06:13;1.07;;;0.97;;
46363;SDS011;32071;49.036;9.344;2022-11-04T02:08:40;1.00;;;0.83;;
46363;SDS011;32071;49.036;9.344;2022-11-04T02:11:06;1.20;;;0.80;;
46363;SDS011;32071;49.036;9.344;2022-11-04T02:13:32;1.30;;;0.80;;
46363;SDS011;32071;49.036;9.344;2022-11-04T02:18:42;1.10;;;1.00;;
46363;SDS011;32071;49.036;9.344;2022-11-04T02:21:29;1.60;;;1.00;;
46363;SDS011;32071;49.036;9.344;2022-11-04T02:24:45;2.07;;;0.97;;
46363;SDS011;32071;49.036;9.344;2022-11-04T02:30:26;1.13;;;1.03;;
46363;SDS011;32071;49.036;9.344;2022-11-04T02:33:04;1.57;;;1.03;;
46363;SDS011;32071;49.036;9.344;2022-11-04T02:35:42;1.00;;;0.93;;
46363;SDS011;32071;49.036;9.344;2022-11-04T02:38:28;1.70;;;1.20;;
46363;SDS011;32071;49.036;9.344;2022-11-04T02:41:19;1.10;;;1.00;;
46363;SDS011;32071;49.036;9.344;2022-11-04T02:46:45;1.50;;;0.90;;
46363;SDS011;32071;49.036;9.344;2022-11-04T02:49:18;1.80;;;0.97;;
46363;SDS011;32071;49.036;9.344;2022-11-04T02:52:05;2.57;;;1.10;;
46363;SDS011;32071;49.036;9.344;2022-11-04T02:54:41;1.37;;;1.27;;
46363;SDS011;32071;49.036;9.344;2022-11-04T02:57:27;1.20;;;1.00;;
46363;SDS011;32071;49.036;9.344;2022-11-04T03:02:28;4.63;;;1.17;;
46363;SDS011;32071;49.036;9.344;2022-11-04T03:05:16;1.70;;;0.90;;
46363;SDS011;32071;49.036;9.344;2022-11-04T03:07:50;1.47;;;1.13;;
46363;SDS011;32071;49.036;9.344;2022-11-04T03:10:24;2.20;;;1.00;;
46363;SDS011;32071;49.036;9.344;2022-11-04T03:12:57;3.43;;;1.10;;
46363;SDS011;32071;49.036;9.344;2022-11-04T03:15:31;2.30;;;1.00;;
46363;SDS011;32071;49.036;9.344;2022-11-04T03:18:01;1.50;;;0.90;;
46363;SDS011;32071;49.036;9.344;2022-11-04T03:20:28;1.23;;;1.10;;
46363;SDS011;32071;49.036;9.344;2022-11-04T03:22:55;1.33;;;1.07;;
46363;SDS011;32071;49.036;9.344;2022-11-04T03:25:25;3.37;;;1.00;;
46363;SDS011;32071;49.036;9.344;2022-11-04T03:30:40;2.43;;;1.00;;
46363;SDS011;32071;49.036;9.344;2022-11-04T03:35:43;1.47;;;1.10;;
46363;SDS011;32071;49.036;9.344;2022-11-04T03:38:08;1.90;;;1.10;;
46363;SDS011;32071;49.036;9.344;2022-11-04T03:40:34;2.20;;;1.20;;
46363;SDS011;32071;49.036;9.344;2022-11-04T03:43:03;2.97;;;0.97;;
46363;SDS011;32071;49.036;9.344;2022-11-04T03:45:40;1.10;;;1.00;;
46363;SDS011;32071;49.036;9.344;2022-11-04T03:48:06;2.37;;;1.40;;
46363;SDS011;32071;49.036;9.344;2022-11-04T03:50:37;1.07;;;1.03;;
46363;SDS011;32071;49.036;9.344;2022-11-04T03:53:05;6.43;;;1.07;;
46363;SDS011;32071;49.036;9.344;2022-11-04T03:55:40;1.80;;;1.00;;
46363;SDS011;32071;49.036;9.344;2022-11-04T04:07:02;1.77;;;1.33;;
46363;SDS011;32071;49.036;9.344;2022-11-04T04:09:38;4.00;;;0.90;;
46363;SDS011;32071;49.036;9.344;2022-11-04T04:12:25;2.10;;;0.93;;
46363;SDS011;32071;49.036;9.344;2022-11-04T04:14:53;3.20;;;0.93;;
46363;SDS011;32071;49.036;9.344;2022-11-04T04:17:34;2.40;;;0.93;;
46363;SDS011;32071;49.036;9.344;2022-11-04T04:20:04;4.40;;;1.03;;
46363;SDS011;32071;49.036;9.344;2022-11-04T04:22:40;2.53;;;1.23;;
46363;SDS011;32071;49.036;9.344;2022-11-04T04:25:09;2.90;;;0.80;;
46363;SDS011;32071;49.036;9.344;2022-11-04T04:27:57;11.23;;;1.53;;
46363;SDS011;32071;49.036;9.344;2022-11-04T04:30:24;2.27;;;1.30;;
46363;SDS011;32071;49.036;9.344;2022-11-04T04:32:51;4.03;;;0.90;;
46363;SDS011;32071;49.036;9.344;2022-11-04T04:35:32;2.90;;;2.27;;
46363;SDS011;32071;49.036;9.344;2022-11-04T04:41:02;3.33;;;1.30;;
46363;SDS011;32071;49.036;9.344;2022-11-04T04:44:01;4.83;;;1.33;;
46363;SDS011;32071;49.036;9.344;2022-11-04T04:46:46;2.70;;;1.47;;
46363;SDS011;32071;49.036;9.344;2022-11-04T04:49:14;2.13;;;1.27;;
46363;SDS011;32071;49.036;9.344;2022-11-04T04:51:42;3.20;;;1.13;;
46363;SDS011;32071;49.036;9.344;2022-11-04T04:54:10;1.03;;;0.90;;
46363;SDS011;32071;49.036;9.344;2022-11-04T04:56:36;2.80;;;1.67;;
46363;SDS011;32071;49.036;9.344;2022-11-04T04:59:01;2.70;;;1.20;;
46363;SDS011;32071;49.036;9.344;2022-11-04T05:01:27;1.10;;;0.93;;
46363;SDS011;32071;49.036;9.344;2022-11-04T05:03:53;1.93;;;1.00;;
46363;SDS011;32071;49.036;9.344;2022-11-04T05:06:18;2.10;;;1.13;;
46363;SDS011;32071;49.036;9.344;2022-11-04T05:08:44;1.40;;;1.10;;
46363;SDS011;32071;49.036;9.344;2022-11-04T05:11:09;1.27;;;1.17;;
46363;SDS011;32071;49.036;9.344;2022-11-04T05:13:35;2.27;;;1.00;;
46363;SDS011;32071;49.036;9.344;2022-11-04T05:16:04;3.03;;;1.00;;
46363;SDS011;32071;49.036;9.344;2022-11-04T05:18:32;1.77;;;0.77;;
46363;SDS011;32071;49.036;9.344;2022-11-04T05:21:01;3.70;;;1.50;;
46363;SDS011;32071;49.036;9.344;2022-11-04T05:23:28;0.80;;;0.80;;
46363;SDS011;32071;49.036;9.344;2022-11-04T05:25:56;2.00;;;1.07;;
46363;SDS011;32071;49.036;9.344;2022-11-04T05:28:22;1.20;;;0.90;;
46363;SDS011;32071;49.036;9.344;2022-11-04T05:30:48;1.07;;;0.97;;
46363;SDS011;32071;49.036;9.344;2022-11-04T05:33:13;2.50;;;1.10;;
46363;SDS011;32071;49.036;9.344;2022-11-04T05:35:39;2.20;;;0.90;;
46363;SDS011;32071;49.036;9.344;2022-11-04T05:38:04;1.63;;;0.87;;
46363;SDS011;32071;49.036;9.344;2022-11-04T05:40:30;1.67;;;1.20;;
46363;SDS011;32071;49.036;9.344;2022-11-04T05:42:58;7.07;;;1.27;;
46363;SDS011;32071;49.036;9.344;2022-11-04T05:45:25;9.00;;;1.43;;
46363;SDS011;32071;49.036;9.344;2022-11-04T05:47:58;2.10;;;0.83;;
46363;SDS011;32071;49.036;9.344;2022-11-04T05:50:24;1.13;;;0.87;;
46363;SDS011;32071;49.036;9.344;2022-11-04T05:52:50;1.53;;;1.20;;
46363;SDS011;32071;49.036;9.344;2022-11-04T05:55:16;1.60;;;1.13;;
46363;SDS011;32071;49.036;9.344;2022-11-04T05:57:42;1.53;;;1.07;;
46363;SDS011;32071;49.036;9.344;2022-11-04T06:00:08;2.33;;;1.10;;
46363;SDS011;32071;49.036;9.344;2022-11-04T06:02:35;0.80;;;0.80;;
46363;SDS011;32071;49.036;9.344;2022-11-04T06:05:00;6.23;;;1.10;;
46363;SDS011;32071;49.036;9.344;2022-11-04T06:07:26;2.23;;;0.90;;
46363;SDS011;32071;49.036;9.344;2022-11-04T06:09:51;2.03;;;0.90;;
46363;SDS011;32071;49.036;9.344;2022-11-04T06:12:17;2.20;;;1.47;;
46363;SDS011;32071;49.036;9.344;2022-11-04T06:14:43;1.27;;;1.10;;
46363;SDS011;32071;49.036;9.344;2022-11-04T06:17:19;2.47;;;1.20;;
46363;SDS011;32071;49.036;9.344;2022-11-04T06:19:45;1.10;;;1.00;;
46363;SDS011;32071;49.036;9.344;2022-11-04T06:22:12;4.37;;;1.20;;
46363;SDS011;32071;49.036;9.344;2022-11-04T06:24:42;2.50;;;1.00;;
46363;SDS011;32071;49.036;9.344;2022-11-04T06:27:08;2.93;;;0.90;;
46363;SDS011;32071;49.036;9.344;2022-11-04T06:29:34;2.03;;;0.87;;
46363;SDS011;32071;49.036;9.344;2022-11-04T06:32:04;2.53;;;1.00;;
46363;SDS011;32071;49.036;9.344;2022-11-04T06:34:30;4.73;;;1.60;;
46363;SDS011;32071;49.036;9.344;2022-11-04T06:36:56;3.17;;;1.00;;
46363;SDS011;32071;49.036;9.344;2022-11-04T06:39:21;1.70;;;1.00;;
46363;SDS011;32071;49.036;9.344;2022-11-04T06:41:47;2.27;;;1.50;;
46363;SDS011;32071;49.036;9.344;2022-11-04T06:44:12;1.77;;;1.40;;
46363;SDS011;32071;49.036;9.344;2022-11-04T06:46:39;1.47;;;1.10;;
46363;SDS011;32071;49.036;9.344;2022-11-04T06:49:08;0.93;;;0.70;;
46363;SDS011;32071;49.036;9.344;2022-11-04T06:51:36;1.10;;;1.00;;
46363;SDS011;32071;49.036;9.344;2022-11-04T06:54:01;1.70;;;1.20;;
46363;SDS011;32071;49.036;9.344;2022-11-04T06:56:27;1.17;;;1.07;;
46363;SDS011;32071;49.036;9.344;2022-11-04T06:58:53;3.17;;;2.63;;
46363;SDS011;32071;49.036;9.344;2022-11-04T07:01:20;1.83;;;1.23;;
46363;SDS011;32071;49.036;9.344;2022-11-04T07:03:50;2.10;;;1.30;;
46363;SDS011;32071;49.036;9.344;2022-11-04T07:06:17;2.90;;;1.87;;
46363;SDS011;32071;49.036;9.344;2022-11-04T07:08:44;2.00;;;0.83;;
46363;SDS011;32071;49.036;9.344;2022-11-04T07:11:10;2.03;;;1.20;;
46363;SDS011;32071;49.036;9.344;2022-11-04T07:13:36;2.73;;;1.20;;
46363;SDS011;32071;49.036;9.344;2022-11-04T07:16:08;2.20;;;1.37;;
46363;SDS011;32071;49.036;9.344;2022-11-04T07:18:34;8.73;;;1.10;;
46363;SDS011;32071;49.036;9.344;2022-11-04T07:21:00;3.90;;;1.50;;
46363;SDS011;32071;49.036;9.344;2022-11-04T07:23:26;2.40;;;2.20;;
46363;SDS011;32071;49.036;9.344;2022-11-04T07:25:51;3.97;;;1.20;;
46363;SDS011;32071;49.036;9.344;2022-11-04T07:28:18;1.87;;;1.20;;
46363;SDS011;32071;49.036;9.344;2022-11-04T07:30:44;3.80;;;1.00;;
46363;SDS011;32071;49.036;9.344;2022-11-04T07:33:10;2.43;;;1.10;;
46363;SDS011;32071;49.036;9.344;2022-11-04T07:35:36;2.87;;;0.90;;
46363;SDS011;32071;49.036;9.344;2022-11-04T07:38:02;1.60;;;1.03;;
46363;SDS011;32071;49.036;9.344;2022-11-04T07:40:29;1.67;;;0.90;;
46363;SDS011;32071;49.036;9.344;2022-11-04T07:42:58;3.53;;;1.20;;
46363;SDS011;32071;49.036;9.344;2022-11-04T07:45:24;1.60;;;1.10;;
46363;SDS011;32071;49.036;9.344;2022-11-04T07:47:50;4.03;;;1.30;;
46363;SDS011;32071;49.036;9.344;2022-11-04T07:50:15;2.73;;;1.10;;
46363;SDS011;32071;49.036;9.344;2022-11-04T07:52:41;1.13;;;1.03;;
46363;SDS011;32071;49.036;9.344;2022-11-04T07:55:07;2.63;;;1.70;;
46363;SDS011;32071;49.036;9.344;2022-11-04T07:57:33;1.17;;;1.07;;
46363;SDS011;32071;49.036;9.344;2022-11-04T08:00:00;0.60;;;0.60;;
46363;SDS011;32071;49.036;9.344;2022-11-04T08:02:25;1.30;;;1.20;;
46363;SDS011;32071;49.036;9.344;2022-11-04T08:04:51;4.90;;;1.40;;
46363;SDS011;32071;49.036;9.344;2022-11-04T08:07:16;1.43;;;0.97;;
46363;SDS011;32071;49.036;9.344;2022-11-04T08:09:42;1.00;;;0.97;;
46363;SDS011;32071;49.036;9.344;2022-11-04T08:12:08;3.80;;;1.07;;
46363;SDS011;32071;49.036;9.344;2022-11-04T08:14:34;2.77;;;1.10;;
46363;SDS011;32071;49.036;9.344;2022-11-04T08:17:00;2.47;;;0.93;;
46363;SDS011;32071;49.036;9.344;2022-11-04T08:19:26;1.33;;;1.20;;
46363;SDS011;32071;49.036;9.344;2022-11-04T08:21:51;2.40;;;1.17;;
46363;SDS011;32071;49.036;9.344;2022-11-04T08:24:17;1.63;;;1.53;;
46363;SDS011;32071;49.036;9.344;2022-11-04T08:26:42;3.63;;;1.53;;
46363;SDS011;32071;49.036;9.344;2022-11-04T08:29:10;1.37;;;1.10;;
46363;SDS011;32071;49.036;9.344;2022-11-04T08:31:35;1.73;;;1.53;;
46363;SDS011;32071;49.036;9.344;2022-11-04T08:34:01;2.47;;;1.47;;
46363;SDS011;32071;49.036;9.344;2022-11-04T08:36:28;2.67;;;1.50;;
46363;SDS011;32071;49.036;9.344;2022-11-04T08:38:56;1.77;;;1.10;;
46363;SDS011;32071;49.036;9.344;2022-11-04T08:41:23;2.23;;;1.30;;
46363;SDS011;32071;49.036;9.344;2022-11-04T08:43:51;1.90;;;1.10;;
46363;SDS011;32071;49.036;9.344;2022-11-04T08:46:17;2.10;;;1.47;;
46363;SDS011;32071;49.036;9.344;2022-11-04T08:48:44;2.47;;;1.30;;
46363;SDS011;32071;49.036;9.344;2022-11-04T08:51:11;3.13;;;1.40;;
46363;SDS011;32071;49.036;9.344;2022-11-04T08:53:39;1.77;;;1.37;;
46363;SDS011;32071;49.036;9.344;2022-11-04T08:56:08;3.13;;;1.27;;
46363;SDS011;32071;49.036;9.344;2022-11-04T08:58:38;3.60;;;1.27;;
46363;SDS011;32071;49.036;9.344;2022-11-04T09:01:04;2.13;;;1.37;;
46363;SDS011;32071;49.036;9.344;2022-11-04T09:03:30;2.00;;;1.20;;
46363;SDS011;32071;49.036;9.344;2022-11-04T09:05:58;4.33;;;1.17;;
46363;SDS011;32071;49.036;9.344;2022-11-04T09:08:24;3.17;;;1.60;;
46363;SDS011;32071;49.036;9.344;2022-11-04T09:10:50;5.07;;;1.70;;
46363;SDS011;32071;49.036;9.344;2022-11-04T09:13:15;2.40;;;1.97;;
46363;SDS011;32071;49.036;9.344;2022-11-04T09:15:41;1.20;;;1.10;;
46363;SDS011;32071;49.036;9.344;2022-11-04T09:18:07;1.57;;;1.30;;
46363;SDS011;32071;49.036;9.344;2022-11-04T09:20:34;2.93;;;1.50;;
46363;SDS011;32071;49.036;9.344;2022-11-04T09:23:02;2.10;;;1.43;;
46363;SDS011;32071;49.036;9.344;2022-11-04T09:25:28;2.23;;;1.20;;
46363;SDS011;32071;49.036;9.344;2022-11-04T09:27:54;1.83;;;1.57;;
46363;SDS011;32071;49.036;9.344;2022-11-04T09:30:19;2.20;;;1.70;;
46363;SDS011;32071;49.036;9.344;2022-11-04T09:32:45;2.90;;;1.70;;
46363;SDS011;32071;49.036;9.344;2022-11-04T09:35:10;2.93;;;1.57;;
46363;SDS011;32071;49.036;9.344;2022-11-04T09:37:36;4.33;;;1.70;;
46363;SDS011;32071;49.036;9.344;2022-11-04T09:40:02;3.17;;;1.73;;
46363;SDS011;32071;49.036;9.344;2022-11-04T09:44:58;2.10;;;1.43;;
46363;SDS011;32071;49.036;9.344;2022-11-04T09:47:35;2.50;;;1.40;;
46363;SDS011;32071;49.036;9.344;2022-11-04T09:50:04;2.17;;;1.60;;
46363;SDS011;32071;49.036;9.344;2022-11-04T09:52:38;1.63;;;1.50;;
46363;SDS011;32071;49.036;9.344;2022-11-04T09:55:23;1.90;;;1.50;;
46363;SDS011;32071;49.036;9.344;2022-11-04T09:57:55;2.00;;;1.40;;
46363;SDS011;32071;49.036;9.344;2022-11-04T10:00:22;2.50;;;1.70;;
46363;SDS011;32071;49.036;9.344;2022-11-04T10:02:56;3.90;;;1.47;;
46363;SDS011;32071;49.036;9.344;2022-11-04T10:08:38;3.23;;;2.30;;
46363;SDS011;32071;49.036;9.344;2022-11-04T10:11:15;1.70;;;1.60;;
46363;SDS011;32071;49.036;9.344;2022-11-04T10:22:09;2.10;;;1.50;;
46363;SDS011;32071;49.036;9.344;2022-11-04T10:24:51;3.90;;;1.90;;
46363;SDS011;32071;49.036;9.344;2022-11-04T10:27:31;2.77;;;2.20;;
46363;SDS011;32071;49.036;9.344;2022-11-04T10:30:01;2.17;;;1.90;;
46363;SDS011;32071;49.036;9.344;2022-11-04T10:32:31;2.17;;;1.97;;
46363;SDS011;32071;49.036;9.344;2022-11-04T10:37:52;2.00;;;1.60;;
46363;SDS011;32071;49.036;9.344;2022-11-04T10:40:22;1.10;;;0.93;;
46363;SDS011;32071;49.036;9.344;2022-11-04T10:42:50;1.90;;;1.23;;
46363;SDS011;32071;49.036;9.344;2022-11-04T10:45:18;4.43;;;1.50;;
46363;SDS011;32071;49.036;9.344;2022-11-04T10:47:53;1.50;;;1.40;;
46363;SDS011;32071;49.036;9.344;2022-11-04T10:50:29;1.57;;;1.27;;
46363;SDS011;32071;49.036;9.344;2022-11-04T10:53:12;1.63;;;1.10;;
46363;SDS011;32071;49.036;9.344;2022-11-04T10:58:30;2.70;;;1.10;;
46363;SDS011;32071;49.036;9.344;2022-11-04T11:00:59;1.67;;;1.57;;
46363;SDS011;32071;49.036;9.344;2022-11-04T11:03:47;3.50;;;1.30;;
46363;SDS011;32071;49.036;9.344;2022-11-04T11:09:11;3.23;;;1.73;;
46363;SDS011;32071;49.036;9.344;2022-11-04T11:11:52;1.73;;;1.10;;
46363;SDS011;32071;49.036;9.344;2022-11-04T11:14:40;5.73;;;1.33;;
46363;SDS011;32071;49.036;9.344;2022-11-04T11:20:14;1.80;;;1.00;;
46363;SDS011;32071;49.036;9.344;2022-11-04T11:22:43;2.87;;;1.70;;
46363;SDS011;32071;49.036;9.344;2022-11-04T11:28:23;1.40;;;1.20;;
46363;SDS011;32071;49.036;9.344;2022-11-04T11:30:56;8.27;;;1.60;;
46363;SDS011;32071;49.036;9.344;2022-11-04T11:33:32;4.93;;;2.10;;
46363;SDS011;32071;49.036;9.344;2022-11-04T11:36:05;2.00;;;1.63;;
46363;SDS011;32071;49.036;9.344;2022-11-04T11:39:05;2.07;;;1.70;;
46363;SDS011;32071;49.036;9.344;2022-11-04T11:41:51;1.83;;;1.67;;
46363;SDS011;32071;49.036;9.344;2022-11-04T11:44:31;5.00;;;2.20;;
46363;SDS011;32071;49.036;9.344;2022-11-04T11:47:03;3.17;;;2.00;;
46363;SDS011;32071;49.036;9.344;2022-11-04T11:49:34;3.77;;;1.90;;
46363;SDS011;32071;49.036;9.344;2022-11-04T11:54:48;3.27;;;1.97;;
46363;SDS011;32071;49.036;9.344;2022-11-04T11:57:35;1.87;;;1.53;;
46363;SDS011;32071;49.036;9.344;2022-11-04T12:00:09;1.80;;;1.23;;
46363;SDS011;32071;49.036;9.344;2022-11-04T12:02:56;2.37;;;1.63;;
46363;SDS011;32071;49.036;9.344;2022-11-04T12:05:45;2.20;;;1.23;;
46363;SDS011;32071;49.036;9.344;2022-11-04T12:11:14;2.83;;;1.30;;
46363;SDS011;32071;49.036;9.344;2022-11-04T12:13:47;2.87;;;2.00;;
46363;SDS011;32071;49.036;9.344;2022-11-04T12:16:25;3.43;;;1.70;;
46363;SDS011;32071;49.036;9.344;2022-11-04T12:25:59;2.17;;;1.70;;
46363;SDS011;32071;49.036;9.344;2022-11-04T12:28:09;7.97;;;1.67;;
46363;SDS011;32071;49.036;9.344;2022-11-04T12:30:45;1.53;;;1.07;;
46363;SDS011;32071;49.036;9.344;2022-11-04T12:33:53;2.40;;;1.63;;
46363;SDS011;32071;49.036;9.344;2022-11-04T12:39:15;4.27;;;1.70;;
46363;SDS011;32071;49.036;9.344;2022-11-04T12:47:48;2.97;;;1.40;;
46363;SDS011;32071;49.036;9.344;2022-11-04T12:50:20;4.33;;;1.80;;
46363;SDS011;32071;49.036;9.344;2022-11-04T12:56:08;2.00;;;1.80;;
46363;SDS011;32071;49.036;9.344;2022-11-04T12:58:53;1.93;;;1.50;;
46363;SDS011;32071;49.036;9.344;2022-11-04T13:01:30;3.03;;;1.50;;
46363;SDS011;32071;49.036;9.344;2022-11-04T13:04:16;2.70;;;1.50;;
46363;SDS011;32071;49.036;9.344;2022-11-04T13:06:53;4.43;;;2.00;;
46363;SDS011;32071;49.036;9.344;2022-11-04T13:12:10;1.50;;;1.27;;
46363;SDS011;32071;49.036;9.344;2022-11-04T13:14:43;1.57;;;1.40;;
46363;SDS011;32071;49.036;9.344;2022-11-04T13:17:27;1.40;;;1.10;;
46363;SDS011;32071;49.036;9.344;2022-11-04T13:20:01;1.20;;;1.17;;
46363;SDS011;32071;49.036;9.344;2022-11-04T13:22:35;2.57;;;1.20;;
46363;SDS011;32071;49.036;9.344;2022-11-04T13:25:03;3.70;;;1.60;;
46363;SDS011;32071;49.036;9.344;2022-11-04T13:27:46;3.20;;;1.60;;
46363;SDS011;32071;49.036;9.344;2022-11-04T13:32:48;2.80;;;1.40;;
46363;SDS011;32071;49.036;9.344;2022-11-04T13:35:36;2.23;;;1.73;;
46363;SDS011;32071;49.036;9.344;2022-11-04T13:38:27;3.70;;;1.60;;
46363;SDS011;32071;49.036;9.344;2022-11-04T13:43:29;3.40;;;2.30;;
46363;SDS011;32071;49.036;9.344;2022-11-04T13:46:49;4.87;;;1.80;;
46363;SDS011;32071;49.036;9.344;2022-11-04T13:49:05;5.00;;;2.70;;
46363;SDS011;32071;49.036;9.344;2022-11-04T13:51:41;4.00;;;1.80;;
46363;SDS011;32071;49.036;9.344;2022-11-04T13:57:05;2.60;;;1.40;;
46363;SDS011;32071;49.036;9.344;2022-11-04T13:59:31;2.23;;;1.33;;
46363;SDS011;32071;49.036;9.344;2022-11-04T14:04:44;1.90;;;1.33;;
46363;SDS011;32071;49.036;9.344;2022-11-04T14:07:12;3.83;;;1.47;;
46363;SDS011;32071;49.036;9.344;2022-11-04T14:14:41;2.83;;;1.70;;
46363;SDS011;32071;49.036;9.344;2022-11-04T14:24:59;1.97;;;1.20;;
46363;SDS011;32071;49.036;9.344;2022-11-04T14:27:37;2.23;;;1.40;;
46363;SDS011;32071;49.036;9.344;2022-11-04T14:30:04;3.43;;;1.60;;
46363;SDS011;32071;49.036;9.344;2022-11-04T14:32:35;6.13;;;1.30;;
46363;SDS011;32071;49.036;9.344;2022-11-04T14:35:05;3.10;;;1.20;;
46363;SDS011;32071;49.036;9.344;2022-11-04T14:37:33;1.67;;;1.20;;
46363;SDS011;32071;49.036;9.344;2022-11-04T14:40:01;3.30;;;2.00;;
46363;SDS011;32071;49.036;9.344;2022-11-04T14:42:44;2.70;;;1.43;;
46363;SDS011;32071;49.036;9.344;2022-11-04T14:45:21;1.87;;;1.10;;
46363;SDS011;32071;49.036;9.344;2022-11-04T14:48:11;1.77;;;1.57;;
46363;SDS011;32071;49.036;9.344;2022-11-04T14:50:43;2.47;;;1.20;;
46363;SDS011;32071;49.036;9.344;2022-11-04T14:53:14;1.73;;;1.50;;
46363;SDS011;32071;49.036;9.344;2022-11-04T14:56:14;3.13;;;1.43;;
46363;SDS011;32071;49.036;9.344;2022-11-04T15:01:44;2.17;;;1.20;;
46363;SDS011;32071;49.036;9.344;2022-11-04T15:09:21;2.90;;;1.47;;
46363;SDS011;32071;49.036;9.344;2022-11-04T15:11:48;1.33;;;1.20;;
46363;SDS011;32071;49.036;9.344;2022-11-04T15:14:34;6.40;;;1.43;;
46363;SDS011;32071;49.036;9.344;2022-11-04T15:17:01;3.73;;;1.30;;
46363;SDS011;32071;49.036;9.344;2022-11-04T15:19:31;2.20;;;1.03;;
46363;SDS011;32071;49.036;9.344;2022-11-04T15:22:02;3.37;;;1.10;;
46363;SDS011;32071;49.036;9.344;2022-11-04T15:24:30;1.83;;;1.67;;
46363;SDS011;32071;49.036;9.344;2022-11-04T15:27:00;1.73;;;1.30;;
46363;SDS011;32071;49.036;9.344;2022-11-04T15:29:28;1.83;;;1.30;;
46363;SDS011;32071;49.036;9.344;2022-11-04T15:32:01;3.17;;;1.43;;
46363;SDS011;32071;49.036;9.344;2022-11-04T15:34:28;4.70;;;1.27;;
46363;SDS011;32071;49.036;9.344;2022-11-04T15:36:55;4.67;;;1.20;;
46363;SDS011;32071;49.036;9.344;2022-11-04T15:39:30;1.73;;;1.20;;
46363;SDS011;32071;49.036;9.344;2022-11-04T15:42:10;8.17;;;1.23;;
46363;SDS011;32071;49.036;9.344;2022-11-04T15:53:30;2.60;;;1.63;;
46363;SDS011;32071;49.036;9.344;2022-11-04T15:55:58;1.90;;;1.40;;
46363;SDS011;32071;49.036;9.344;2022-11-04T15:58:24;4.10;;;1.40;;
46363;SDS011;32071;49.036;9.344;2022-11-04T16:00:52;1.93;;;1.00;;
46363;SDS011;32071;49.036;9.344;2022-11-04T16:03:19;2.17;;;1.30;;
46363;SDS011;32071;49.036;9.344;2022-11-04T16:06:03;1.50;;;1.13;;
46363;SDS011;32071;49.036;9.344;2022-11-04T16:08:30;4.00;;;1.73;;
46363;SDS011;32071;49.036;9.344;2022-11-04T16:11:10;1.60;;;1.50;;
46363;SDS011;32071;49.036;9.344;2022-11-04T16:13:41;2.50;;;1.80;;
46363;SDS011;32071;49.036;9.344;2022-11-04T16:16:28;3.40;;;1.57;;
46363;SDS011;32071;49.036;9.344;2022-11-04T16:18:54;2.07;;;1.80;;
46363;SDS011;32071;49.036;9.344;2022-11-04T16:21:23;1.70;;;1.60;;
46363;SDS011;32071;49.036;9.344;2022-11-04T16:23:58;4.53;;;1.97;;
46363;SDS011;32071;49.036;9.344;2022-11-04T16:26:25;2.53;;;1.60;;
46363;SDS011;32071;49.036;9.344;2022-11-04T16:28:58;1.93;;;1.70;;
46363;SDS011;32071;49.036;9.344;2022-11-04T16:31:28;11.93;;;2.47;;
46363;SDS011;32071;49.036;9.344;2022-11-04T16:33:57;4.13;;;2.20;;
46363;SDS011;32071;49.036;9.344;2022-11-04T16:36:23;6.60;;;4.57;;
46363;SDS011;32071;49.036;9.344;2022-11-04T16:38:56;5.23;;;4.43;;
46363;SDS011;32071;49.036;9.344;2022-11-04T16:41:23;5.30;;;4.13;;
46363;SDS011;32071;49.036;9.344;2022-11-04T16:43:51;8.50;;;3.17;;
46363;SDS011;32071;49.036;9.344;2022-11-04T16:46:18;5.83;;;1.77;;
46363;SDS011;32071;49.036;9.344;2022-11-04T16:48:44;1.90;;;1.60;;
46363;SDS011;32071;49.036;9.344;2022-11-04T16:51:14;2.27;;;1.60;;
46363;SDS011;32071;49.036;9.344;2022-11-04T16:53:51;1.70;;;1.30;;
46363;SDS011;32071;49.036;9.344;2022-11-04T16:56:19;2.23;;;2.00;;
46363;SDS011;32071;49.036;9.344;2022-11-04T16:58:48;2.10;;;1.83;;
46363;SDS011;32071;49.036;9.344;2022-11-04T17:01:14;3.20;;;1.90;;
46363;SDS011;32071;49.036;9.344;2022-11-04T17:03:40;5.50;;;2.70;;
46363;SDS011;32071;49.036;9.344;2022-11-04T17:06:07;2.80;;;1.60;;
46363;SDS011;32071;49.036;9.344;2022-11-04T17:08:33;1.70;;;1.60;;
46363;SDS011;32071;49.036;9.344;2022-11-04T17:10:59;2.57;;;1.40;;
46363;SDS011;32071;49.036;9.344;2022-11-04T17:13:25;2.10;;;1.90;;
46363;SDS011;32071;49.036;9.344;2022-11-04T17:15:51;2.73;;;1.40;;
46363;SDS011;32071;49.036;9.344;2022-11-04T17:18:16;2.50;;;1.90;;
46363;SDS011;32071;49.036;9.344;2022-11-04T17:21:03;3.30;;;1.90;;